Alna, Maine
Current Conditions -  °F | °C
As of 11:53 PM on Saturday 20 Dec 2014 (Local Time) from KIWI Reporting Station
Overcast Overcast  
Wind Chill: -6°   Ceiling: 1100
Heat Index: -6°   Visibility: 10mi
Dew Point: -8°   Wind: 0mph
Humidity: 85%   Direction: NA
Pressure: 30.37"   Gusts: NA
Location:  44.11°N, 69.6°W
Report Text: KIWI 210453Z AUTO 00000KT 10SM OVC011 M06/M08 A3037 RMK AO2 SLP284 T10561078 400061056
Loading
Personal Weather Stations






























Interactive Weather Map New forecast layout! Learn more

10-Day Weather Forecast

Advertisements
Track Severe Weather on mobile